sensor_id;sensor_type;location;lat;lon;timestamp;temperature;humidity
13336;DHT22;6737;51.480;11.962;2024-03-23T00:55:44;9.00;99.90
13336;DHT22;6737;51.480;11.962;2024-03-23T00:58:10;9.10;99.90
13336;DHT22;6737;51.480;11.962;2024-03-23T01:00:36;9.00;99.90
13336;DHT22;6737;51.480;11.962;2024-03-23T01:03:02;9.00;99.90
13336;DHT22;6737;51.480;11.962;2024-03-23T01:05:27;9.00;99.90
13336;DHT22;6737;51.480;11.962;2024-03-23T01:07:53;9.10;99.90
13336;DHT22;6737;51.480;11.962;2024-03-23T01:10:19;9.10;99.90
13336;DHT22;6737;51.480;11.962;2024-03-23T01:12:44;9.00;99.90
13336;DHT22;6737;51.480;11.962;2024-03-23T01:15:10;9.10;99.90
13336;DHT22;6737;51.480;11.962;2024-03-23T01:17:36;9.10;99.90
13336;DHT22;6737;51.480;11.962;2024-03-23T01:20:02;9.10;99.90
13336;DHT22;6737;51.480;11.962;2024-03-23T01:22:28;9.00;99.90
13336;DHT22;6737;51.480;11.962;2024-03-23T01:24:54;9.00;99.90
13336;DHT22;6737;51.480;11.962;2024-03-23T01:27:20;9.10;99.90
13336;DHT22;6737;51.480;11.962;2024-03-23T01:29:46;9.00;99.90
13336;DHT22;6737;51.480;11.962;2024-03-23T01:32:11;9.10;99.90
13336;DHT22;6737;51.480;11.962;2024-03-23T01:34:37;9.10;99.90
13336;DHT22;6737;51.480;11.962;2024-03-23T01:37:03;9.10;99.90
13336;DHT22;6737;51.480;11.962;2024-03-23T01:39:28;9.10;99.90
13336;DHT22;6737;51.480;11.962;2024-03-23T01:41:54;9.10;99.90
13336;DHT22;6737;51.480;11.962;2024-03-23T01:44:20;9.10;99.90
13336;DHT22;6737;51.480;11.962;2024-03-23T01:46:46;9.10;99.90
13336;DHT22;6737;51.480;11.962;2024-03-23T01:49:12;9.00;99.90
13336;DHT22;6737;51.480;11.962;2024-03-23T01:51:38;9.00;99.90
13336;DHT22;6737;51.480;11.962;2024-03-23T01:54:06;9.00;99.90
13336;DHT22;6737;51.480;11.962;2024-03-23T01:56:35;9.00;99.90
13336;DHT22;6737;51.480;11.962;2024-03-23T01:59:05;9.10;99.90
13336;DHT22;6737;51.480;11.962;2024-03-23T02:01:32;9.00;99.90
13336;DHT22;6737;51.480;11.962;2024-03-23T02:03:58;9.00;99.90
13336;DHT22;6737;51.480;11.962;2024-03-23T02:06:24;9.00;99.90
13336;DHT22;6737;51.480;11.962;2024-03-23T02:08:51;8.90;99.90
13336;DHT22;6737;51.480;11.962;2024-03-23T02:11:17;8.90;99.90
13336;DHT22;6737;51.480;11.962;2024-03-23T02:13:43;8.90;99.90
13336;DHT22;6737;51.480;11.962;2024-03-23T02:16:08;8.90;99.90
13336;DHT22;6737;51.480;11.962;2024-03-23T02:18:34;8.90;99.90
13336;DHT22;6737;51.480;11.962;2024-03-23T02:21:00;8.90;99.90
13336;DHT22;6737;51.480;11.962;2024-03-23T02:23:26;8.80;99.90
13336;DHT22;6737;51.480;11.962;2024-03-23T02:25:52;8.90;99.90
13336;DHT22;6737;51.480;11.962;2024-03-23T02:28:19;9.00;99.90
13336;DHT22;6737;51.480;11.962;2024-03-23T02:30:45;9.00;99.90
13336;DHT22;6737;51.480;11.962;2024-03-23T02:33:11;9.00;99.90
13336;DHT22;6737;51.480;11.962;2024-03-23T02:35:37;9.00;99.90
13336;DHT22;6737;51.480;11.962;2024-03-23T02:38:03;9.00;99.90
13336;DHT22;6737;51.480;11.962;2024-03-23T02:40:29;9.00;99.90
13336;DHT22;6737;51.480;11.962;2024-03-23T02:42:55;8.90;99.90
13336;DHT22;6737;51.480;11.962;2024-03-23T02:45:20;8.90;99.90
13336;DHT22;6737;51.480;11.962;2024-03-23T02:47:46;8.90;99.90
13336;DHT22;6737;51.480;11.962;2024-03-23T02:50:12;8.90;99.90
13336;DHT22;6737;51.480;11.962;2024-03-23T02:52:38;8.90;99.90
13336;DHT22;6737;51.480;11.962;2024-03-23T02:55:04;9.00;99.90
13336;DHT22;6737;51.480;11.962;2024-03-23T02:57:30;9.00;99.90
13336;DHT22;6737;51.480;11.962;2024-03-23T02:59:56;9.00;99.90
13336;DHT22;6737;51.480;11.962;2024-03-23T03:02:22;9.00;99.90
13336;DHT22;6737;51.480;11.962;2024-03-23T03:04:48;9.00;99.90
13336;DHT22;6737;51.480;11.962;2024-03-23T03:07:14;9.00;99.90
13336;DHT22;6737;51.480;11.962;2024-03-23T03:09:40;9.00;99.90
13336;DHT22;6737;51.480;11.962;2024-03-23T03:12:06;9.00;99.90
13336;DHT22;6737;51.480;11.962;2024-03-23T03:14:32;9.00;99.90
13336;DHT22;6737;51.480;11.962;2024-03-23T03:16:58;8.90;99.90
13336;DHT22;6737;51.480;11.962;2024-03-23T03:19:24;8.90;99.90
13336;DHT22;6737;51.480;11.962;2024-03-23T03:21:50;8.80;99.90
13336;DHT22;6737;51.480;11.962;2024-03-23T03:24:15;8.90;99.90
13336;DHT22;6737;51.480;11.962;2024-03-23T03:26:42;8.80;99.90
13336;DHT22;6737;51.480;11.962;2024-03-23T03:29:08;8.90;99.90
13336;DHT22;6737;51.480;11.962;2024-03-23T03:31:34;8.90;99.90
13336;DHT22;6737;51.480;11.962;2024-03-23T03:33:59;8.90;99.90
13336;DHT22;6737;51.480;11.962;2024-03-23T03:36:25;8.90;99.90
13336;DHT22;6737;51.480;11.962;2024-03-23T03:38:51;8.90;99.90
13336;DHT22;6737;51.480;11.962;2024-03-23T03:41:18;8.90;99.90
13336;DHT22;6737;51.480;11.962;2024-03-23T03:43:44;8.90;99.90
13336;DHT22;6737;51.480;11.962;2024-03-23T03:46:10;8.90;99.90
13336;DHT22;6737;51.480;11.962;2024-03-23T03:48:36;8.90;99.90
13336;DHT22;6737;51.480;11.962;2024-03-23T03:51:03;8.80;99.90
13336;DHT22;6737;51.480;11.962;2024-03-23T03:53:29;8.90;99.90
13336;DHT22;6737;51.480;11.962;2024-03-23T03:55:56;8.80;99.90
13336;DHT22;6737;51.480;11.962;2024-03-23T03:58:22;8.80;99.90
13336;DHT22;6737;51.480;11.962;2024-03-23T04:00:47;8.80;99.90
13336;DHT22;6737;51.480;11.962;2024-03-23T04:03:13;8.80;99.90
13336;DHT22;6737;51.480;11.962;2024-03-23T04:05:39;8.80;99.90
13336;DHT22;6737;51.480;11.962;2024-03-23T04:08:06;8.80;99.90
13336;DHT22;6737;51.480;11.962;2024-03-23T04:10:32;8.90;99.90
13336;DHT22;6737;51.480;11.962;2024-03-23T04:12:58;8.80;99.90
13336;DHT22;6737;51.480;11.962;2024-03-23T04:15:24;8.70;99.90
13336;DHT22;6737;51.480;11.962;2024-03-23T04:17:50;8.70;99.90
13336;DHT22;6737;51.480;11.962;2024-03-23T04:20:16;8.70;99.90
13336;DHT22;6737;51.480;11.962;2024-03-23T04:22:43;8.70;99.90
13336;DHT22;6737;51.480;11.962;2024-03-23T04:25:09;8.70;99.90
13336;DHT22;6737;51.480;11.962;2024-03-23T04:27:37;8.70;99.90
13336;DHT22;6737;51.480;11.962;2024-03-23T04:30:03;8.80;99.90
13336;DHT22;6737;51.480;11.962;2024-03-23T04:32:35;8.70;99.90
13336;DHT22;6737;51.480;11.962;2024-03-23T04:35:01;8.70;99.90
13336;DHT22;6737;51.480;11.962;2024-03-23T04:37:28;8.70;99.90
13336;DHT22;6737;51.480;11.962;2024-03-23T04:39:54;8.70;99.90
13336;DHT22;6737;51.480;11.962;2024-03-23T04:42:20;8.80;99.90
13336;DHT22;6737;51.480;11.962;2024-03-23T04:44:46;8.80;99.90
13336;DHT22;6737;51.480;11.962;2024-03-23T04:47:11;8.70;99.90
13336;DHT22;6737;51.480;11.962;2024-03-23T04:49:37;8.70;99.90
13336;DHT22;6737;51.480;11.962;2024-03-23T04:52:04;8.70;99.90
13336;DHT22;6737;51.480;11.962;2024-03-23T04:54:30;8.70;99.90
13336;DHT22;6737;51.480;11.962;2024-03-23T04:56:58;8.60;99.90
13336;DHT22;6737;51.480;11.962;2024-03-23T04:59:24;8.70;99.90
13336;DHT22;6737;51.480;11.962;2024-03-23T05:01:49;8.70;99.90
13336;DHT22;6737;51.480;11.962;2024-03-23T05:04:15;8.60;99.90
13336;DHT22;6737;51.480;11.962;2024-03-23T05:06:41;8.60;99.90
13336;DHT22;6737;51.480;11.962;2024-03-23T05:09:06;8.70;99.90
13336;DHT22;6737;51.480;11.962;2024-03-23T05:11:34;8.80;99.90
13336;DHT22;6737;51.480;11.962;2024-03-23T05:14:00;8.70;99.90
13336;DHT22;6737;51.480;11.962;2024-03-23T05:16:26;8.70;99.90
13336;DHT22;6737;51.480;11.962;2024-03-23T05:18:52;8.70;99.90
13336;DHT22;6737;51.480;11.962;2024-03-23T05:21:18;8.60;99.90
13336;DHT22;6737;51.480;11.962;2024-03-23T05:23:44;8.60;99.90
13336;DHT22;6737;51.480;11.962;2024-03-23T05:26:10;8.60;99.90
13336;DHT22;6737;51.480;11.962;2024-03-23T05:28:35;8.60;99.90
13336;DHT22;6737;51.480;11.962;2024-03-23T05:31:01;8.60;99.90
13336;DHT22;6737;51.480;11.962;2024-03-23T05:33:27;8.70;99.90
13336;DHT22;6737;51.480;11.962;2024-03-23T05:36:00;8.70;99.90
13336;DHT22;6737;51.480;11.962;2024-03-23T05:38:27;8.60;99.90
13336;DHT22;6737;51.480;11.962;2024-03-23T05:40:58;8.60;99.90
13336;DHT22;6737;51.480;11.962;2024-03-23T05:43:24;8.60;99.90
13336;DHT22;6737;51.480;11.962;2024-03-23T05:45:54;8.70;99.90
13336;DHT22;6737;51.480;11.962;2024-03-23T05:48:20;8.70;99.90
13336;DHT22;6737;51.480;11.962;2024-03-23T05:50:46;8.60;99.90
13336;DHT22;6737;51.480;11.962;2024-03-23T05:53:11;8.50;99.90
13336;DHT22;6737;51.480;11.962;2024-03-23T05:55:38;8.50;99.90
13336;DHT22;6737;51.480;11.962;2024-03-23T05:58:04;8.50;99.90
13336;DHT22;6737;51.480;11.962;2024-03-23T06:00:30;8.40;99.90
13336;DHT22;6737;51.480;11.962;2024-03-23T06:02:56;8.30;99.90
13336;DHT22;6737;51.480;11.962;2024-03-23T06:05:23;8.30;99.90
13336;DHT22;6737;51.480;11.962;2024-03-23T06:07:49;8.30;99.90
13336;DHT22;6737;51.480;11.962;2024-03-23T06:10:15;8.30;99.90
13336;DHT22;6737;51.480;11.962;2024-03-23T06:12:41;8.30;99.90
13336;DHT22;6737;51.480;11.962;2024-03-23T06:15:08;8.20;99.90
13336;DHT22;6737;51.480;11.962;2024-03-23T06:17:39;8.20;99.90
13336;DHT22;6737;51.480;11.962;2024-03-23T06:20:05;8.20;99.90
13336;DHT22;6737;51.480;11.962;2024-03-23T06:22:33;8.10;99.90
13336;DHT22;6737;51.480;11.962;2024-03-23T06:24:59;8.00;99.90
13336;DHT22;6737;51.480;11.962;2024-03-23T06:27:25;8.00;99.90
13336;DHT22;6737;51.480;11.962;2024-03-23T06:29:51;8.00;99.90
13336;DHT22;6737;51.480;11.962;2024-03-23T06:32:17;7.90;99.90
13336;DHT22;6737;51.480;11.962;2024-03-23T06:34:44;7.80;99.90
13336;DHT22;6737;51.480;11.962;2024-03-23T06:37:10;7.70;99.90
13336;DHT22;6737;51.480;11.962;2024-03-23T06:39:37;7.50;99.90
13336;DHT22;6737;51.480;11.962;2024-03-23T06:42:03;7.30;99.90
13336;DHT22;6737;51.480;11.962;2024-03-23T06:44:29;7.30;99.90
13336;DHT22;6737;51.480;11.962;2024-03-23T06:46:56;7.10;99.90
13336;DHT22;6737;51.480;11.962;2024-03-23T06:49:23;7.10;99.90
13336;DHT22;6737;51.480;11.962;2024-03-23T06:51:49;7.10;99.90
13336;DHT22;6737;51.480;11.962;2024-03-23T06:54:16;7.00;99.90
13336;DHT22;6737;51.480;11.962;2024-03-23T06:56:44;6.90;99.90
13336;DHT22;6737;51.480;11.962;2024-03-23T06:59:09;6.80;99.90
13336;DHT22;6737;51.480;11.962;2024-03-23T07:01:35;6.70;99.90
13336;DHT22;6737;51.480;11.962;2024-03-23T07:04:01;6.60;99.90
13336;DHT22;6737;51.480;11.962;2024-03-23T07:06:27;6.60;99.90
13336;DHT22;6737;51.480;11.962;2024-03-23T07:08:53;6.70;99.90
13336;DHT22;6737;51.480;11.962;2024-03-23T07:11:20;6.60;99.90
13336;DHT22;6737;51.480;11.962;2024-03-23T07:13:46;6.60;99.90
13336;DHT22;6737;51.480;11.962;2024-03-23T07:16:13;6.60;99.90
13336;DHT22;6737;51.480;11.962;2024-03-23T07:18:39;6.50;99.90
13336;DHT22;6737;51.480;11.962;2024-03-23T07:21:05;6.10;99.90
13336;DHT22;6737;51.480;11.962;2024-03-23T07:23:32;6.00;99.90
13336;DHT22;6737;51.480;11.962;2024-03-23T07:25:59;5.70;99.90
13336;DHT22;6737;51.480;11.962;2024-03-23T07:28:25;5.70;99.90
13336;DHT22;6737;51.480;11.962;2024-03-23T07:31:04;5.60;99.90
13336;DHT22;6737;51.480;11.962;2024-03-23T07:33:30;5.50;99.90
13336;DHT22;6737;51.480;11.962;2024-03-23T07:35:56;5.60;99.90
13336;DHT22;6737;51.480;11.962;2024-03-23T07:38:22;5.50;99.90
13336;DHT22;6737;51.480;11.962;2024-03-23T07:40:47;5.30;99.90
13336;DHT22;6737;51.480;11.962;2024-03-23T07:43:20;5.30;99.90
13336;DHT22;6737;51.480;11.962;2024-03-23T07:45:54;5.20;99.90
13336;DHT22;6737;51.480;11.962;2024-03-23T07:48:23;5.10;99.90
13336;DHT22;6737;51.480;11.962;2024-03-23T07:51:05;5.10;99.90
13336;DHT22;6737;51.480;11.962;2024-03-23T07:53:31;5.00;99.90
13336;DHT22;6737;51.480;11.962;2024-03-23T07:56:02;4.90;99.90
13336;DHT22;6737;51.480;11.962;2024-03-23T07:58:28;4.90;99.90
13336;DHT22;6737;51.480;11.962;2024-03-23T08:00:55;4.80;99.90
13336;DHT22;6737;51.480;11.962;2024-03-23T08:03:21;4.90;99.90
13336;DHT22;6737;51.480;11.962;2024-03-23T08:05:47;4.80;99.90
13336;DHT22;6737;51.480;11.962;2024-03-23T08:08:13;4.80;99.90
13336;DHT22;6737;51.480;11.962;2024-03-23T08:10:52;4.80;99.90
13336;DHT22;6737;51.480;11.962;2024-03-23T08:13:19;4.80;99.90
13336;DHT22;6737;51.480;11.962;2024-03-23T08:15:45;4.80;99.90
13336;DHT22;6737;51.480;11.962;2024-03-23T08:18:12;4.80;99.90
13336;DHT22;6737;51.480;11.962;2024-03-23T08:20:39;4.80;99.90
13336;DHT22;6737;51.480;11.962;2024-03-23T08:23:08;4.90;99.90
13336;DHT22;6737;51.480;11.962;2024-03-23T08:25:34;4.90;99.90
13336;DHT22;6737;51.480;11.962;2024-03-23T08:28:00;4.80;99.90
13336;DHT22;6737;51.480;11.962;2024-03-23T08:30:27;4.80;99.90
13336;DHT22;6737;51.480;11.962;2024-03-23T08:32:54;4.90;99.90
13336;DHT22;6737;51.480;11.962;2024-03-23T08:35:19;4.90;99.90
13336;DHT22;6737;51.480;11.962;2024-03-23T08:37:45;4.80;99.90
13336;DHT22;6737;51.480;11.962;2024-03-23T08:40:12;5.00;99.90
13336;DHT22;6737;51.480;11.962;2024-03-23T08:42:38;4.90;99.90
13336;DHT22;6737;51.480;11.962;2024-03-23T08:45:04;4.90;99.90
13336;DHT22;6737;51.480;11.962;2024-03-23T08:47:32;4.90;99.90
13336;DHT22;6737;51.480;11.962;2024-03-23T08:49:59;4.90;99.90
13336;DHT22;6737;51.480;11.962;2024-03-23T08:52:25;4.90;99.90
13336;DHT22;6737;51.480;11.962;2024-03-23T08:54:54;4.90;99.90
13336;DHT22;6737;51.480;11.962;2024-03-23T08:57:19;4.90;99.90
13336;DHT22;6737;51.480;11.962;2024-03-23T08:59:45;5.00;99.90
13336;DHT22;6737;51.480;11.962;2024-03-23T09:02:11;5.00;99.90
13336;DHT22;6737;51.480;11.962;2024-03-23T09:04:37;5.00;99.90
13336;DHT22;6737;51.480;11.962;2024-03-23T09:07:02;5.10;99.90
13336;DHT22;6737;51.480;11.962;2024-03-23T09:09:28;5.10;99.90
13336;DHT22;6737;51.480;11.962;2024-03-23T09:11:54;5.20;99.90
13336;DHT22;6737;51.480;11.962;2024-03-23T09:14:21;5.20;99.90
13336;DHT22;6737;51.480;11.962;2024-03-23T09:16:50;5.30;99.90
13336;DHT22;6737;51.480;11.962;2024-03-23T09:19:17;5.20;99.90
13336;DHT22;6737;51.480;11.962;2024-03-23T09:21:43;5.10;99.90
13336;DHT22;6737;51.480;11.962;2024-03-23T09:24:09;5.00;99.90
13336;DHT22;6737;51.480;11.962;2024-03-23T09:26:35;4.90;99.90
13336;DHT22;6737;51.480;11.962;2024-03-23T09:29:01;5.00;99.90
13336;DHT22;6737;51.480;11.962;2024-03-23T09:31:26;4.90;99.90
13336;DHT22;6737;51.480;11.962;2024-03-23T09:33:52;4.90;99.90
13336;DHT22;6737;51.480;11.962;2024-03-23T09:36:18;4.90;99.90
13336;DHT22;6737;51.480;11.962;2024-03-23T09:38:44;5.00;99.90
13336;DHT22;6737;51.480;11.962;2024-03-23T09:41:09;5.00;99.90
13336;DHT22;6737;51.480;11.962;2024-03-23T09:43:35;4.90;99.90
13336;DHT22;6737;51.480;11.962;2024-03-23T09:46:02;4.90;99.90
13336;DHT22;6737;51.480;11.962;2024-03-23T09:48:28;4.90;99.90
13336;DHT22;6737;51.480;11.962;2024-03-23T09:50:55;4.90;99.90
13336;DHT22;6737;51.480;11.962;2024-03-23T09:53:21;4.90;99.90
13336;DHT22;6737;51.480;11.962;2024-03-23T09:55:48;4.90;99.90
13336;DHT22;6737;51.480;11.962;2024-03-23T09:58:16;5.00;99.90
13336;DHT22;6737;51.480;11.962;2024-03-23T10:00:42;5.00;99.90
13336;DHT22;6737;51.480;11.962;2024-03-23T10:03:08;5.00;99.90
13336;DHT22;6737;51.480;11.962;2024-03-23T10:05:38;5.10;99.90
13336;DHT22;6737;51.480;11.962;2024-03-23T10:10:39;5.10;99.90
13336;DHT22;6737;51.480;11.962;2024-03-23T10:13:05;5.10;99.90
13336;DHT22;6737;51.480;11.962;2024-03-23T10:15:34;5.10;99.90
13336;DHT22;6737;51.480;11.962;2024-03-23T10:18:18;5.10;99.90
13336;DHT22;6737;51.480;11.962;2024-03-23T10:20:51;5.10;99.90
13336;DHT22;6737;51.480;11.962;2024-03-23T10:23:17;5.10;99.90
13336;DHT22;6737;51.480;11.962;2024-03-23T10:25:43;5.20;99.90
13336;DHT22;6737;51.480;11.962;2024-03-23T10:28:09;5.20;99.90
13336;DHT22;6737;51.480;11.962;2024-03-23T10:30:37;5.30;99.90
13336;DHT22;6737;51.480;11.962;2024-03-23T10:33:12;5.40;99.90
13336;DHT22;6737;51.480;11.962;2024-03-23T10:35:39;5.50;99.90
13336;DHT22;6737;51.480;11.962;2024-03-23T10:38:06;5.50;99.90
13336;DHT22;6737;51.480;11.962;2024-03-23T10:40:35;5.60;99.90
13336;DHT22;6737;51.480;11.962;2024-03-23T10:43:03;5.60;99.90
13336;DHT22;6737;51.480;11.962;2024-03-23T10:45:29;5.70;99.90
13336;DHT22;6737;51.480;11.962;2024-03-23T10:47:55;5.70;99.90
13336;DHT22;6737;51.480;11.962;2024-03-23T10:50:22;5.80;99.90
13336;DHT22;6737;51.480;11.962;2024-03-23T10:52:49;5.80;99.90
13336;DHT22;6737;51.480;11.962;2024-03-23T10:55:17;5.80;99.90
13336;DHT22;6737;51.480;11.962;2024-03-23T10:57:54;5.80;99.90
13336;DHT22;6737;51.480;11.962;2024-03-23T11:00:21;5.70;99.90
13336;DHT22;6737;51.480;11.962;2024-03-23T11:02:49;5.80;99.90
13336;DHT22;6737;51.480;11.962;2024-03-23T11:07:53;5.80;99.90
13336;DHT22;6737;51.480;11.962;2024-03-23T11:10:26;5.80;99.90
13336;DHT22;6737;51.480;11.962;2024-03-23T11:12:54;5.90;99.90
13336;DHT22;6737;51.480;11.962;2024-03-23T11:15:20;5.90;99.90
13336;DHT22;6737;51.480;11.962;2024-03-23T11:18:06;6.00;99.90
13336;DHT22;6737;51.480;11.962;2024-03-23T11:20:35;6.20;99.90
13336;DHT22;6737;51.480;11.962;2024-03-23T11:23:01;6.20;99.90
13336;DHT22;6737;51.480;11.962;2024-03-23T11:25:28;6.30;99.90
13336;DHT22;6737;51.480;11.962;2024-03-23T11:27:55;6.40;99.90
13336;DHT22;6737;51.480;11.962;2024-03-23T11:30:25;6.50;99.90
13336;DHT22;6737;51.480;11.962;2024-03-23T11:32:53;6.60;99.90
13336;DHT22;6737;51.480;11.962;2024-03-23T11:35:38;6.60;99.90
13336;DHT22;6737;51.480;11.962;2024-03-23T11:38:13;6.60;99.90
13336;DHT22;6737;51.480;11.962;2024-03-23T11:40:44;6.60;99.90
13336;DHT22;6737;51.480;11.962;2024-03-23T11:43:18;6.70;99.90
13336;DHT22;6737;51.480;11.962;2024-03-23T11:45:52;6.70;99.90
13336;DHT22;6737;51.480;11.962;2024-03-23T11:48:22;6.90;99.90
13336;DHT22;6737;51.480;11.962;2024-03-23T11:50:50;6.90;99.90
13336;DHT22;6737;51.480;11.962;2024-03-23T11:53:21;7.00;99.90
13336;DHT22;6737;51.480;11.962;2024-03-23T11:58:21;7.20;99.90
13336;DHT22;6737;51.480;11.962;2024-03-23T12:00:59;7.20;99.90
13336;DHT22;6737;51.480;11.962;2024-03-23T12:03:26;7.30;99.90
13336;DHT22;6737;51.480;11.962;2024-03-23T12:05:55;7.40;99.90
13336;DHT22;6737;51.480;11.962;2024-03-23T12:08:29;7.50;99.90
13336;DHT22;6737;51.480;11.962;2024-03-23T12:13:32;7.50;99.90
13336;DHT22;6737;51.480;11.962;2024-03-23T12:16:18;7.50;99.90
13336;DHT22;6737;51.480;11.962;2024-03-23T12:18:49;7.60;99.90
13336;DHT22;6737;51.480;11.962;2024-03-23T12:21:16;7.60;99.90
13336;DHT22;6737;51.480;11.962;2024-03-23T12:23:43;7.60;99.90
13336;DHT22;6737;51.480;11.962;2024-03-23T12:26:11;7.60;99.90
13336;DHT22;6737;51.480;11.962;2024-03-23T12:28:37;7.60;99.90
13336;DHT22;6737;51.480;11.962;2024-03-23T12:31:04;7.70;99.90
13336;DHT22;6737;51.480;11.962;2024-03-23T12:33:31;7.80;99.90
13336;DHT22;6737;51.480;11.962;2024-03-23T12:35:57;7.80;99.90
13336;DHT22;6737;51.480;11.962;2024-03-23T12:38:22;7.90;99.90
13336;DHT22;6737;51.480;11.962;2024-03-23T12:40:49;8.00;99.90
13336;DHT22;6737;51.480;11.962;2024-03-23T12:43:18;8.10;99.90
13336;DHT22;6737;51.480;11.962;2024-03-23T12:45:47;8.20;99.90
13336;DHT22;6737;51.480;11.962;2024-03-23T12:48:13;8.20;99.90
13336;DHT22;6737;51.480;11.962;2024-03-23T12:50:39;8.30;99.90
13336;DHT22;6737;51.480;11.962;2024-03-23T12:53:05;8.40;99.90
13336;DHT22;6737;51.480;11.962;2024-03-23T12:55:31;8.40;99.90
13336;DHT22;6737;51.480;11.962;2024-03-23T12:57:56;8.50;99.90
13336;DHT22;6737;51.480;11.962;2024-03-23T13:00:22;8.50;99.90
13336;DHT22;6737;51.480;11.962;2024-03-23T13:02:48;8.60;99.90
13336;DHT22;6737;51.480;11.962;2024-03-23T13:05:14;8.70;99.90
13336;DHT22;6737;51.480;11.962;2024-03-23T13:07:40;8.70;99.90
13336;DHT22;6737;51.480;11.962;2024-03-23T13:10:06;8.80;99.90
13336;DHT22;6737;51.480;11.962;2024-03-23T13:12:32;8.80;99.90
13336;DHT22;6737;51.480;11.962;2024-03-23T13:14:59;8.90;99.90
13336;DHT22;6737;51.480;11.962;2024-03-23T13:17:26;9.00;99.90
13336;DHT22;6737;51.480;11.962;2024-03-23T13:19:55;9.10;99.90
13336;DHT22;6737;51.480;11.962;2024-03-23T13:22:22;9.10;99.90
13336;DHT22;6737;51.480;11.962;2024-03-23T13:24:48;9.20;99.90
13336;DHT22;6737;51.480;11.962;2024-03-23T13:27:13;9.10;99.90
13336;DHT22;6737;51.480;11.962;2024-03-23T13:29:39;9.20;99.90
13336;DHT22;6737;51.480;11.962;2024-03-23T13:32:05;9.20;99.90
13336;DHT22;6737;51.480;11.962;2024-03-23T13:34:32;9.30;99.90
13336;DHT22;6737;51.480;11.962;2024-03-23T13:36:59;9.30;99.90
13336;DHT22;6737;51.480;11.962;2024-03-23T13:39:25;9.30;99.90
13336;DHT22;6737;51.480;11.962;2024-03-23T13:41:53;9.50;99.90
13336;DHT22;6737;51.480;11.962;2024-03-23T13:44:21;9.50;99.90
13336;DHT22;6737;51.480;11.962;2024-03-23T13:46:46;9.50;99.90
13336;DHT22;6737;51.480;11.962;2024-03-23T13:51:50;9.30;99.90
13336;DHT22;6737;51.480;11.962;2024-03-23T13:54:15;9.20;99.90
13336;DHT22;6737;51.480;11.962;2024-03-23T13:56:41;8.90;99.90
13336;DHT22;6737;51.480;11.962;2024-03-23T13:59:07;8.50;99.90
13336;DHT22;6737;51.480;11.962;2024-03-23T14:01:33;8.00;99.90
13336;DHT22;6737;51.480;11.962;2024-03-23T14:03:59;7.60;99.90
13336;DHT22;6737;51.480;11.962;2024-03-23T14:06:24;7.10;99.90
13336;DHT22;6737;51.480;11.962;2024-03-23T14:08:50;6.90;99.90
13336;DHT22;6737;51.480;11.962;2024-03-23T14:11:18;6.60;99.90
13336;DHT22;6737;51.480;11.962;2024-03-23T14:13:44;6.40;99.90
13336;DHT22;6737;51.480;11.962;2024-03-23T14:16:10;6.30;99.90
13336;DHT22;6737;51.480;11.962;2024-03-23T14:18:36;6.30;99.90
13336;DHT22;6737;51.480;11.962;2024-03-23T14:21:02;6.30;99.90
13336;DHT22;6737;51.480;11.962;2024-03-23T14:23:29;6.30;99.90
13336;DHT22;6737;51.480;11.962;2024-03-23T14:25:58;6.40;99.90
13336;DHT22;6737;51.480;11.962;2024-03-23T14:28:24;6.40;99.90
13336;DHT22;6737;51.480;11.962;2024-03-23T14:30:51;6.60;99.90
13336;DHT22;6737;51.480;11.962;2024-03-23T14:33:17;6.60;99.90
13336;DHT22;6737;51.480;11.962;2024-03-23T14:35:51;6.60;99.90
13336;DHT22;6737;51.480;11.962;2024-03-23T14:38:17;6.70;99.90
13336;DHT22;6737;51.480;11.962;2024-03-23T14:40:44;6.70;99.90
13336;DHT22;6737;51.480;11.962;2024-03-23T14:43:10;6.70;99.90
13336;DHT22;6737;51.480;11.962;2024-03-23T14:45:35;6.80;99.90
13336;DHT22;6737;51.480;11.962;2024-03-23T14:48:02;6.90;99.90
13336;DHT22;6737;51.480;11.962;2024-03-23T14:50:28;7.00;99.90
13336;DHT22;6737;51.480;11.962;2024-03-23T14:52:54;7.00;99.90
13336;DHT22;6737;51.480;11.962;2024-03-23T14:55:19;7.10;99.90
13336;DHT22;6737;51.480;11.962;2024-03-23T14:57:45;7.10;99.90
13336;DHT22;6737;51.480;11.962;2024-03-23T15:00:11;7.10;99.90
13336;DHT22;6737;51.480;11.962;2024-03-23T15:02:38;7.20;99.90
13336;DHT22;6737;51.480;11.962;2024-03-23T15:05:05;7.10;99.90
13336;DHT22;6737;51.480;11.962;2024-03-23T15:07:33;7.20;99.90
13336;DHT22;6737;51.480;11.962;2024-03-23T15:09:59;7.30;99.90
13336;DHT22;6737;51.480;11.962;2024-03-23T15:12:24;7.30;99.90
13336;DHT22;6737;51.480;11.962;2024-03-23T15:14:50;7.30;99.90
13336;DHT22;6737;51.480;11.962;2024-03-23T15:17:16;7.40;99.90
13336;DHT22;6737;51.480;11.962;2024-03-23T15:19:42;7.30;99.90
13336;DHT22;6737;51.480;11.962;2024-03-23T15:22:08;7.30;99.90
13336;DHT22;6737;51.480;11.962;2024-03-23T15:24:35;7.30;99.90
13336;DHT22;6737;51.480;11.962;2024-03-23T15:27:02;7.40;99.90
13336;DHT22;6737;51.480;11.962;2024-03-23T15:29:29;7.60;99.90
13336;DHT22;6737;51.480;11.962;2024-03-23T15:31:54;7.70;99.90
13336;DHT22;6737;51.480;11.962;2024-03-23T15:34:21;7.70;99.90
13336;DHT22;6737;51.480;11.962;2024-03-23T15:36:49;7.70;99.90
13336;DHT22;6737;51.480;11.962;2024-03-23T15:39:18;7.60;99.90
13336;DHT22;6737;51.480;11.962;2024-03-23T15:41:48;7.60;99.90
13336;DHT22;6737;51.480;11.962;2024-03-23T15:44:14;7.60;99.90
13336;DHT22;6737;51.480;11.962;2024-03-23T15:46:39;7.60;99.90
13336;DHT22;6737;51.480;11.962;2024-03-23T15:49:06;7.60;99.90
13336;DHT22;6737;51.480;11.962;2024-03-23T15:51:32;7.60;99.90
13336;DHT22;6737;51.480;11.962;2024-03-23T15:54:03;7.50;99.90
13336;DHT22;6737;51.480;11.962;2024-03-23T15:56:29;7.50;99.90
13336;DHT22;6737;51.480;11.962;2024-03-23T15:58:55;7.40;99.90
13336;DHT22;6737;51.480;11.962;2024-03-23T16:01:20;7.40;99.90
13336;DHT22;6737;51.480;11.962;2024-03-23T16:03:47;7.30;99.90
13336;DHT22;6737;51.480;11.962;2024-03-23T16:06:13;7.20;99.90
13336;DHT22;6737;51.480;11.962;2024-03-23T16:08:39;7.20;99.90
13336;DHT22;6737;51.480;11.962;2024-03-23T16:11:07;7.20;99.90
13336;DHT22;6737;51.480;11.962;2024-03-23T16:13:34;7.20;99.90
13336;DHT22;6737;51.480;11.962;2024-03-23T16:16:04;7.20;99.90
13336;DHT22;6737;51.480;11.962;2024-03-23T16:18:34;7.20;99.90
13336;DHT22;6737;51.480;11.962;2024-03-23T16:21:02;7.20;99.90
13336;DHT22;6737;51.480;11.962;2024-03-23T16:23:28;7.20;99.90
13336;DHT22;6737;51.480;11.962;2024-03-23T16:25:55;7.20;99.90
13336;DHT22;6737;51.480;11.962;2024-03-23T16:28:29;7.20;99.90
13336;DHT22;6737;51.480;11.962;2024-03-23T16:30:56;7.20;99.90
13336;DHT22;6737;51.480;11.962;2024-03-23T16:33:22;7.30;99.90
13336;DHT22;6737;51.480;11.962;2024-03-23T16:36:10;7.30;99.90
13336;DHT22;6737;51.480;11.962;2024-03-23T16:38:39;7.20;99.90
13336;DHT22;6737;51.480;11.962;2024-03-23T16:41:06;7.30;99.90
13336;DHT22;6737;51.480;11.962;2024-03-23T16:43:36;7.20;99.90
13336;DHT22;6737;51.480;11.962;2024-03-23T16:46:06;7.30;99.90
13336;DHT22;6737;51.480;11.962;2024-03-23T16:48:37;7.30;99.90
13336;DHT22;6737;51.480;11.962;2024-03-23T16:51:07;7.10;99.90